Latest Weather Observations for Hopetoun North

IDW60801

Issued at 12:35 pm WST Wednesday 26 November 2014 (issued every 30 minutes, with the page automatically refreshed every 10 minutes)

About weather observations | Map of weather stations | Latest weather observations for WA | Other Formats
Station Details ID: 009961 Name: HOPETOUN NORTH Lat: -33.93 Lon: 120.13 Height: 26.0 m
Data from the previous 72 hours. | See also: Recent months at Hopetoun North
Date/Time
WST
Temp
°C
App
Temp
°C
Dew
Point
Rel
Hum
%
Delta-T
°C
Wind Press
QNH
hPa
Press
MSL
hPa
Rain
since 9 am
mm
Dir
 
Spd
km/h
Gust
km/h
Spd
kts
Gust
kts
26/12:30pm 21.6 17.0 15.2 67 3.8 ESE 33 46 18 25 1016.8 1016.7 0.0
26/12:00pm 21.2 16.7 15.3 69 3.5 ESE 33 50 18 27 1017.6 1017.5 0.0
26/11:30am 20.8 16.2 14.7 68 3.6 ESE 32 46 17 25 1018.1 1018.0 0.0
26/11:00am 21.3 16.8 14.9 67 3.8 ESE 32 44 17 24 1018.5 1018.4 0.0
26/10:30am 20.1 15.8 14.5 70 3.3 ESE 30 46 16 25 1019.0 1018.9 0.0
26/10:00am 21.5 18.0 14.4 64 4.1 ESE 26 41 14 22 1019.2 1019.1 0.0
26/09:30am 21.9 19.6 14.0 61 4.6 E 19 30 10 16 1019.5 1019.4 0.0
26/09:00am 22.2 18.7 11.0 49 6.2 ENE 20 33 11 18 1019.8 1019.7 0.0
26/08:30am 20.6 16.9 11.5 56 5.0 ENE 22 33 12 18 1020.1 1020.0 0.0
26/08:00am 19.4 16.0 11.2 59 4.5 ENE 20 28 11 15 1020.2 1020.1 0.0
26/07:30am 17.8 14.1 11.4 66 3.5 NE 22 28 12 15 1020.5 1020.4 0.0
26/07:00am 16.9 13.7 11.8 72 2.8 ENE 20 30 11 16 1020.3 1020.2 0.0
26/06:30am 15.0 11.7 11.6 80 1.8 ENE 20 26 11 14 1020.3 1020.2 0.0
26/06:00am 13.9 11.1 11.4 85 1.3 ENE 17 26 9 14 1020.7 1020.6 0.0
26/05:30am 12.6 11.3 11.2 91 0.7 NE 9 13 5 7 1021.0 1020.9 0.0
26/05:00am 12.4 10.3 11.1 92 0.7 ENE 13 19 7 10 1020.9 1020.8 0.0
26/04:30am 13.0 10.5 11.2 89 0.9 ENE 15 24 8 13 1020.4 1020.3 0.0
26/04:00am 13.6 10.8 11.3 86 1.2 ENE 17 22 9 12 1020.1 1020.0 0.0
26/03:30am 13.8 11.0 11.3 85 1.3 E 17 24 9 13 1019.7 1019.6 0.0
26/03:00am 13.9 11.1 11.2 84 1.4 E 17 22 9 12 1019.8 1019.7 0.0
26/02:30am 14.3 11.9 11.5 83 1.5 E 15 26 8 14 1019.9 1019.8 0.0
26/02:00am 14.3 11.4 11.1 81 1.7 E 17 24 9 13 1020.0 1019.9 0.0
26/01:30am 14.4 11.5 11.0 80 1.8 E 17 26 9 14 1020.3 1020.2 0.0
26/01:00am 14.7 11.1 10.7 77 2.1 ENE 20 32 11 17 1020.6 1020.5 0.0
26/12:30am 14.9 11.7 11.1 78 2.0 ENE 19 33 10 18 1020.8 1020.7 0.0
26/12:00am 15.7 12.9 12.6 82 1.7 ENE 19 26 10 14 1021.0 1020.9 0.0
 
Date/Time
WST
Temp
°C
App
Temp
°C
Dew
Point
Rel
Hum
%
Delta-T
°C
Wind Press
QNH
hPa
Press
MSL
hPa
Rain
since 9 am
mm
Dir
 
Spd
km/h
Gust
km/h
Spd
kts
Gust
kts
25/11:30pm 16.0 14.6 13.5 85 1.4 ENE 13 19 7 10 1021.2 1021.1 0.0
25/11:00pm 16.2 15.2 13.5 84 1.5 ENE 11 17 6 9 1021.3 1021.2 0.0
25/10:30pm 16.3 14.1 13.4 83 1.6 E 17 26 9 14 1021.6 1021.5 0.0
25/10:00pm 16.5 14.0 13.4 82 1.7 E 19 28 10 15 1021.4 1021.3 0.0
25/09:30pm 16.6 14.0 13.3 81 1.9 E 19 28 10 15 1021.4 1021.3 0.0
25/09:00pm 16.9 14.4 13.4 80 2.0 E 19 33 10 18 1021.4 1021.3 0.0
25/08:30pm 17.0 13.9 13.3 79 2.1 E 22 37 12 20 1021.4 1021.3 0.0
25/08:00pm 16.8 13.2 12.9 78 2.2 E 24 33 13 18 1021.4 1021.3 0.0
25/07:30pm 16.8 14.0 13.1 79 2.1 E 20 30 11 16 1021.4 1021.3 0.0
25/07:00pm 16.9 13.7 13.2 79 2.1 ESE 22 30 12 16 1021.4 1021.3 0.0
25/06:30pm 17.3 14.2 13.4 78 2.2 ESE 22 35 12 19 1021.5 1021.4 0.0
25/06:00pm 18.0 14.5 13.3 74 2.6 ESE 24 37 13 20 1021.5 1021.4 0.0
25/05:30pm 18.3 14.4 13.2 72 2.9 ESE 26 37 14 20 1021.1 1021.0 0.0
25/05:00pm 18.4 15.3 13.3 72 2.9 ESE 22 32 12 17 1021.1 1021.0 0.0
25/04:30pm 19.0 14.8 12.3 65 3.7 ESE 26 37 14 20 1020.9 1020.8 0.0
25/04:00pm 19.1 14.8 12.1 64 3.9 ESE 26 37 14 20 1020.9 1020.8 0.0
25/03:30pm 19.4 14.7 11.9 62 4.2 ESE 28 39 15 21 1020.9 1020.8 0.0
25/03:00pm 19.7 15.0 12.0 61 4.3 SE 28 39 15 21 1020.9 1020.8 0.0
25/02:30pm 19.6 14.7 11.4 59 4.5 SE 28 41 15 22 1021.1 1021.0 0.0
25/02:00pm 20.0 14.8 11.5 58 4.7 SE 30 39 16 21 1021.1 1021.0 0.0
25/01:30pm 20.3 15.0 11.2 56 5.0 SE 30 41 16 22 1021.4 1021.3 0.0
25/01:00pm 20.2 15.4 11.7 58 4.7 SE 28 39 15 21 1021.5 1021.4 0.0
25/12:30pm 20.6 15.4 11.5 56 5.0 ESE 30 43 16 23 1021.8 1021.7 0.0
25/12:00pm 20.3 16.1 11.0 55 5.1 SE 24 39 13 21 1021.9 1021.8 0.0
25/11:30am 20.2 15.3 11.4 57 4.9 SE 28 37 15 20 1022.2 1022.1 0.0
25/11:00am 20.2 15.9 10.6 54 5.2 SE 24 33 13 18 1022.3 1022.2 0.0
25/10:30am 19.8 16.0 11.0 57 4.8 SE 22 32 12 17 1022.7 1022.6 0.0
25/10:00am 19.9 16.5 11.1 57 4.8 SE 20 28 11 15 1023.0 1022.9 0.0
25/09:30am 19.9 16.0 8.6 48 5.9 ENE 19 30 10 16 1023.2 1023.1 0.0
25/09:00am 19.5 16.2 9.4 52 5.3 ENE 17 30 9 16 1023.4 1023.3 0.0
25/08:30am 18.7 14.7 9.2 54 5.0 NE 20 30 11 16 1023.6 1023.5 0.0
25/08:00am 17.9 14.0 9.5 58 4.4 ENE 20 28 11 15 1023.8 1023.7 0.0
25/07:30am 16.5 13.2 9.4 63 3.7 NE 17 24 9 13 1023.8 1023.7 0.0
25/07:00am 14.5 11.0 8.7 68 2.9 NE 17 26 9 14 1024.0 1023.9 0.0
25/06:30am 13.0 11.0 8.7 75 2.2 NE 9 13 5 7 1024.3 1024.2 0.0
25/06:00am 10.7 9.1 8.6 87 1.0 NNE 7 7 4 4 1023.8 1023.7 0.0
25/05:30am 9.2 7.4 8.0 92 0.6 NNE 7 11 4 6 1023.6 1023.5 0.0
25/05:00am 9.0 7.2 8.1 94 0.4 NNE 7 11 4 6 1023.2 1023.1 0.0
25/04:30am 9.1 6.9 8.0 93 0.5 NNE 9 11 5 6 1023.0 1022.9 0.0
25/04:00am 9.0 6.7 7.6 91 0.7 NNE 9 15 5 8 1022.8 1022.7 0.0
25/03:30am 9.4 7.2 7.8 90 0.8 NNE 9 9 5 5 1022.8 1022.7 0.0
25/03:00am 9.7 7.9 8.0 89 0.8 NNE 7 11 4 6 1022.8 1022.7 0.0
25/02:30am 9.5 7.3 7.8 89 0.8 NNE 9 9 5 5 1022.7 1022.6 0.0
25/02:00am 9.8 7.9 7.7 87 1.0 NNE 7 9 4 5 1022.8 1022.7 0.0
25/01:30am 10.0 8.2 7.9 87 1.0 NNE 7 7 4 4 1023.0 1022.9 0.0
25/01:00am 10.0 8.2 7.9 87 1.0 NNE 7 7 4 4 1023.4 1023.3 0.0
25/12:30am 10.2 8.4 8.0 86 1.1 NNE 7 7 4 4 1023.4 1023.3 0.0
25/12:00am 10.7 9.1 8.1 84 1.3 NE 6 7 3 4 1023.5 1023.4 0.0
 
Date/Time
WST
Temp
°C
App
Temp
°C
Dew
Point
Rel
Hum
%
Delta-T
°C
Wind Press
QNH
hPa
Press
MSL
hPa
Rain
since 9 am
mm
Dir
 
Spd
km/h
Gust
km/h
Spd
kts
Gust
kts
24/11:30pm 11.3 9.7 8.2 81 1.5 NE 6 7 3 4 1023.7 1023.6 0.0
24/11:00pm 11.6 10.0 8.1 79 1.7 NE 6 7 3 4 1023.9 1023.8 0.0
24/10:30pm 12.4 10.8 8.1 75 2.1 NE 6 9 3 5 1024.2 1024.1 0.0
24/10:00pm 14.0 11.9 8.4 69 2.8 ESE 9 15 5 8 1024.3 1024.2 0.0
24/09:30pm 14.2 11.7 8.4 68 2.9 ESE 11 15 6 8 1024.3 1024.2 0.0
24/09:00pm 14.5 11.7 8.5 67 3.0 SE 13 17 7 9 1024.2 1024.1 0.0
24/08:30pm 14.1 12.1 8.5 69 2.8 SE 9 17 5 9 1024.1 1024.0 0.0
24/08:00pm 14.3 11.8 8.3 67 3.0 SE 11 20 6 11 1023.9 1023.8 0.0
24/07:30pm 14.6 12.2 8.5 67 3.1 ESE 11 17 6 9 1023.7 1023.6 0.0
24/07:00pm 14.6 12.2 8.5 67 3.1 SE 11 15 6 8 1023.6 1023.5 0.0
24/06:30pm 15.3 12.4 8.3 63 3.5 SE 13 20 7 11 1023.4 1023.3 0.0
24/06:00pm 16.1 12.6 8.6 61 3.8 SE 17 22 9 12 1023.1 1023.0 0.0
24/05:30pm 16.7 13.2 8.7 59 4.1 SE 17 26 9 14 1022.8 1022.7 0.0
24/05:00pm 16.9 13.1 9.1 60 4.0 SSE 19 28 10 15 1022.6 1022.5 0.0
24/04:30pm 17.7 14.0 9.3 58 4.4 SE 19 26 10 14 1022.4 1022.3 0.0
24/04:00pm 17.9 14.2 9.5 58 4.4 SE 19 28 10 15 1022.4 1022.3 0.0
24/03:30pm 17.8 14.1 9.4 58 4.4 SE 19 28 10 15 1022.4 1022.3 0.0
24/03:00pm 18.4 14.6 9.2 55 4.8 SSE 19 28 10 15 1022.4 1022.3 0.0
24/02:30pm 18.2 14.3 9.3 56 4.7 SSE 20 26 11 14 1022.5 1022.4 0.0
24/02:00pm 18.7 14.9 9.8 56 4.7 SSE 20 30 11 16 1022.4 1022.3 0.0
24/01:30pm 18.2 14.4 9.0 55 4.8 SSE 19 28 10 15 1022.6 1022.5 0.0
24/01:00pm 18.6 14.8 9.1 54 5.0 SSE 19 28 10 15 1022.7 1022.6 0.0
24/12:30pm 18.5 14.5 9.0 54 5.0 SE 20 22 11 12 1022.9 1022.8 0.0
24/12:00pm 18.9 15.1 9.1 53 5.1 SSE 19 26 10 14 1023.1 1023.0 0.0
24/11:30am 17.6 13.7 8.7 56 4.6 S 19 26 10 14 1023.4 1023.3 0.0
24/11:00am 17.9 14.1 9.8 59 4.3 SSE 20 26 11 14 1023.5 1023.4 0.0
24/10:30am 18.2 14.5 9.5 57 4.6 S 19 26 10 14 1023.7 1023.6 0.0
24/10:00am 17.1 13.9 6.9 51 5.0 S 13 20 7 11 1023.7 1023.6 0.0
24/09:30am 17.2 14.1 7.3 52 5.0 SSW 13 19 7 10 1023.6 1023.5 0.0
24/09:00am 17.0 14.1 8.2 56 4.5 S 13 20 7 11 1023.7 1023.6 0.2
24/08:30am 16.2 13.6 7.7 57 4.3 S 11 17 6 9 1023.6 1023.5 0.2
24/08:00am 15.8 12.8 7.6 58 4.1 S 13 19 7 10 1023.5 1023.4 0.2
24/07:30am 16.3 12.8 7.0 54 4.6 S 15 19 8 10 1023.2 1023.1 0.2
24/07:00am 16.1 13.1 7.6 57 4.2 SSW 13 17 7 9 1022.8 1022.7 0.2
24/06:30am 15.5 12.6 8.0 61 3.8 S 13 17 7 9 1022.5 1022.4 0.2
24/06:00am 15.3 12.0 6.6 56 4.2 SSW 13 19 7 10 1022.2 1022.1 0.2
24/05:30am 14.9 11.5 7.5 61 3.7 S 15 20 8 11 1022.1 1022.0 0.2
24/05:00am 14.6 11.4 6.9 60 3.7 SSW 13 19 7 10 1021.7 1021.6 0.2
24/04:30am 14.5 10.9 6.8 60 3.7 S 15 22 8 12 1021.3 1021.2 0.2
24/04:00am 14.3 10.7 6.9 61 3.6 SSW 15 22 8 12 1021.0 1020.9 0.2
24/03:30am 13.9 10.1 6.0 59 3.8 SSW 15 22 8 12 1020.8 1020.7 0.2
24/03:00am 14.0 10.2 5.6 57 4.0 SSW 15 22 8 12 1020.8 1020.7 0.2
24/02:30am 14.5 9.7 5.6 55 4.2 SSW 20 28 11 15 1020.6 1020.5 0.2
24/02:00am 14.7 11.2 7.0 60 3.8 SSW 15 24 8 13 1020.5 1020.4 0.2
24/01:30am 14.5 9.9 6.3 58 3.9 SSW 20 28 11 15 1020.5 1020.4 0.2
24/01:00am 14.9 10.3 8.2 64 3.4 SSW 22 30 12 16 1020.6 1020.5 0.2
24/12:30am 15.0 10.7 8.0 63 3.5 SSW 20 28 11 15 1020.6 1020.5 0.2
24/12:00am 15.2 11.1 7.7 61 3.7 SSW 19 26 10 14 1020.6 1020.5 0.2
 
Date/Time
WST
Temp
°C
App
Temp
°C
Dew
Point
Rel
Hum
%
Delta-T
°C
Wind Press
QNH
hPa
Press
MSL
hPa
Rain
since 9 am
mm
Dir
 
Spd
km/h
Gust
km/h
Spd
kts
Gust
kts
23/11:30pm 14.9 10.5 7.5 61 3.7 SSW 20 28 11 15 1020.6 1020.5 0.2
23/11:00pm 15.1 9.9 7.2 59 3.9 SSW 24 32 13 17 1020.5 1020.4 0.2
23/10:30pm 15.1 9.7 7.9 62 3.6 SSW 26 35 14 19 1020.5 1020.4 0.2
23/10:00pm 14.9 9.9 8.2 64 3.4 SSW 24 32 13 17 1020.4 1020.3 0.2
23/09:30pm 15.3 10.0 8.3 63 3.5 SSW 26 39 14 21 1020.5 1020.4 0.2
23/09:00pm 15.4 9.7 8.4 63 3.5 SSW 28 39 15 21 1020.4 1020.3 0.2
23/08:30pm 15.4 9.2 7.9 61 3.8 SSW 30 43 16 23 1020.0 1019.9 0.2
23/08:00pm 15.3 9.0 8.8 65 3.3 SSW 32 44 17 24 1019.5 1019.4 0.2
23/07:30pm 15.2 9.7 9.1 67 3.1 SSW 28 39 15 21 1019.1 1019.0 0.2
23/07:00pm 15.1 9.7 9.5 69 2.9 SSW 28 41 15 22 1018.6 1018.5 0.2
23/06:30pm 15.6 9.5 9.7 68 3.1 SSW 32 44 17 24 1018.1 1018.0 0.2
23/06:00pm 16.1 9.8 9.1 63 3.6 SSW 32 48 17 26 1017.4 1017.3 0.2
23/05:30pm 16.1 9.6 10.4 69 3.0 SSW 35 52 19 28 1016.9 1016.8 0.2
23/05:00pm 17.1 9.7 9.8 62 3.8 SSW 39 52 21 28 1016.4 1016.3 0.2
23/04:30pm 17.9 11.0 8.7 55 4.8 SSW 35 48 19 26 1016.0 1015.9 0.2
23/04:00pm 18.0 10.2 8.3 53 5.0 SSW 39 48 21 26 1015.8 1015.7 0.2
23/03:30pm 18.2 10.8 8.2 52 5.1 SSW 37 54 20 29 1015.3 1015.3 0.2
23/03:00pm 18.4 11.3 9.5 56 4.7 SSW 37 50 20 27 1015.2 1015.2 0.2
23/02:30pm 18.7 11.6 11.0 61 4.2 SSW 39 52 21 28 1015.0 1015.0 0.2
23/02:00pm 19.1 11.5 9.0 52 5.3 SSW 39 54 21 29 1014.9 1014.9 0.2
23/01:30pm 19.2 12.0 9.1 52 5.3 SSW 37 52 20 28 1014.8 1014.8 0.2
23/01:00pm 18.3 11.4 10.4 60 4.2 SSW 37 50 20 27 1014.8 1014.8 0.2

Other Formats:

Comma delimited format used in spreadsheet applications
http://www.bom.gov.au/fwo/IDW60801/IDW60801.95635.axf

JavaScript Object Notation format (JSON) in row-major order
http://www.bom.gov.au/fwo/IDW60801/IDW60801.95635.json